Latest Weather Observations for Richmond

IDN60901

Issued at 11:21 pm EST Monday 6 April 2020 (issued every 10 minutes, with the page automatically refreshed every 10 minutes)

About weather observations | Map of Sydney area stations | Latest observations for Sydney area | Other Formats
Station Details ID: 067105 Name: RICHMOND RAAF Lat: -33.60 Lon: 150.78 Height: 19.0 m
Data from the previous 72 hours. | See also: Recent months at Richmond
Date/Time
EST
Temp
°C
App
Temp
°C
Dew
Point
°C
Rel
Hum
%
Delta-T
°C
Wind Press
QNH
hPa
Press
MSL
hPa
Rain since
9am
mm
Dir  Spd
km/h
Gust
km/h
Spd
kts
Gust
kts
06/11:00pm 17.1 17.4 15.1 88 1.2 SW 7 9 4 5 1021.3 1021.3 0.0
06/10:30pm 17.1 17.5 14.7 86 1.4 SSW 6 9 3 5 1021.4 1021.4 0.0
06/10:00pm 17.3 17.1 14.6 84 1.6 SSW 9 15 5 8 1021.2 1021.2 0.0
06/09:30pm 17.6 17.4 14.7 83 1.7 SSW 9 11 5 6 1021.2 1021.2 0.0
06/09:00pm 17.7 17.8 14.4 81 1.9 SSW 7 9 4 5 1020.8 1020.8 0.0
06/08:30pm 17.9 18.2 14.4 80 2.0 SSW 6 9 3 5 1020.6 1020.6 0.0
06/08:00pm 18.0 17.7 14.3 79 2.1 SSE 9 15 5 8 1020.3 1020.3 0.0
06/07:30pm 18.1 17.0 14.4 79 2.1 SSE 13 17 7 9 1019.9 1019.9 0.0
06/07:00pm 18.3 16.9 14.4 78 2.2 SE 15 22 8 12 1019.6 1019.6 0.0
06/06:30pm 18.2 15.8 14.5 79 2.1 ESE 20 28 11 15 1018.8 1018.8 0.0
06/06:00pm 19.0 16.0 14.7 76 2.5 ESE 24 28 13 15 1018.3 1018.3 0.0
06/05:30pm 19.7 16.0 13.9 69 3.3 ESE 26 32 14 17 1017.7 1017.7 0.0
06/05:00pm 21.7 20.1 11.4 52 5.7 SSE 11 13 6 7 1017.3 1017.3 0.0
06/04:30pm 22.6 20.8 11.0 48 6.4 SSE 11 17 6 9 1017.0 1017.0 0.0
06/04:00pm 23.0 22.2 11.7 49 6.3 SW 7 9 4 5 1016.8 1016.8 0.0
06/03:30pm 22.9 21.9 11.0 47 6.6 S 7 11 4 6 1016.8 1016.8 0.0
06/03:00pm 23.5 22.6 11.2 46 6.9 S 7 9 4 5 1016.7 1016.7 0.0
06/02:30pm 22.9 22.1 11.6 49 6.3 SSW 7 15 4 8 1016.7 1016.7 0.0
06/02:00pm 22.5 20.8 11.3 49 6.2 SSE 11 15 6 8 1016.7 1016.7 0.0
06/01:30pm 23.2 22.3 10.6 45 7.0 WSW 6 11 3 6 1016.7 1016.7 0.0
06/01:00pm 23.8 22.0 12.1 48 6.6 ESE 13 20 7 11 1016.9 1016.9 0.0
06/12:30pm 23.0 22.2 11.7 49 6.4 SSE 7 17 4 9 1017.3 1017.3 0.0
06/12:00pm 22.3 21.0 11.1 49 6.2 E 9 15 5 8 1017.8 1017.8 0.0
06/11:30am 22.3 21.1 11.7 51 5.9 SE 9 17 5 9 1018.2 1018.2 0.0
06/11:00am 21.4 20.2 10.3 49 6.0 SSE 7 17 4 9 1018.3 1018.3 0.0
06/10:30am 21.0 19.6 9.6 48 6.1 ESE 7 15 4 8 1018.5 1018.5 0.0
06/10:00am 20.9 19.7 10.4 51 5.7 ENE 7 13 4 7 1018.5 1018.5 0.0
06/09:30am 19.9 19.1 10.9 56 4.9 E 6 11 3 6 1018.6 1018.6 0.0
06/09:00am 18.8 18.0 11.1 61 4.2 SSE 6 7 3 4 1018.7 1018.7 0.0
06/08:30am 17.4 17.3 10.8 65 3.5 SW 2 7 1 4 1018.7 1018.7 0.0
06/08:00am 17.5 17.7 10.6 64 3.7 CALM 0 0 0 0 1018.4 1018.4 0.0
06/07:30am 15.0 15.0 9.8 71 2.7 CALM 0 0 0 0 1017.8 1017.8 0.0
06/07:00am 13.0 13.2 10.4 84 1.3 CALM 0 0 0 0 1017.3 1017.3 0.0
06/06:30am 12.0 10.8 9.4 84 1.3 ESE 6 9 3 5 1017.0 1017.0 0.0
06/06:00am 11.9 10.3 8.9 82 1.5 NNE 7 9 4 5 1016.7 1016.7 0.0
06/05:30am 12.2 10.2 8.5 78 1.8 WNW 9 11 5 6 1016.4 1016.4 0.0
06/05:00am 13.3 10.9 8.8 74 2.3 NW 11 13 6 7 1016.1 1016.1 0.0
06/04:30am 12.7 10.0 9.0 78 1.9 NW 13 15 7 8 1015.8 1015.8 0.0
06/04:00am 12.8 10.4 8.7 76 2.0 NW 11 13 6 7 1015.8 1015.8 0.0
06/03:30am 12.4 10.0 8.7 78 1.8 NW 11 13 6 7 1015.8 1015.8 0.0
06/03:00am 13.5 12.0 9.2 75 2.2 N 7 11 4 6 1015.7 1015.7 0.0
06/02:30am 13.4 10.8 9.3 76 2.1 NNE 13 15 7 8 1015.9 1015.9 0.0
06/02:00am 13.0 10.6 8.5 74 2.2 NNW 11 15 6 8 1016.0 1016.0 0.0
06/01:30am 13.9 10.8 8.9 72 2.5 NNW 15 17 8 9 1016.3 1016.3 0.0
06/01:00am 12.4 10.5 8.9 79 1.8 NNW 9 11 5 6 1016.5 1016.5 0.0
06/12:30am 12.3 10.9 8.8 79 1.7 N 6 9 3 5 1016.6 1016.6 0.0
06/12:00am 13.6 12.1 9.1 74 2.3 N 7 9 4 5 1016.6 1016.6 0.0
 
Date/Time
EST
Temp
°C
App
Temp
°C
Dew
Point
°C
Rel
Hum
%
Delta-T
°C
Wind Press
QNH
hPa
Press
MSL
hPa
Rain since
9am
mm
Dir  Spd
km/h
Gust
km/h
Spd
kts
Gust
kts
05/11:30pm 14.2 13.9 8.8 70 2.7 CALM 0 0 0 0 1016.9 1016.9 0.0
05/11:00pm 13.9 12.9 8.9 72 2.5 NW 4 9 2 5 1016.9 1016.9 0.0
05/10:30pm 15.3 13.4 9.0 66 3.2 NW 9 11 5 6 1016.9 1016.9 0.0
05/10:00pm 14.1 13.1 8.7 70 2.7 ESE 4 9 2 5 1016.7 1016.7 0.0
05/09:30pm 14.7 12.4 8.9 68 3.0 WSW 11 13 6 7 1016.4 1016.4 0.0
05/09:00pm 16.6 14.6 8.8 60 4.0 WSW 9 11 5 6 1016.2 1016.2 0.0
05/08:30pm 16.3 14.3 8.8 61 3.8 SW 9 11 5 6 1016.0 1016.0 0.0
05/08:00pm 17.6 15.0 7.9 53 4.9 WNW 11 13 6 7 1015.5 1015.5 0.0
05/07:30pm 19.1 14.0 7.8 48 5.8 WNW 24 32 13 17 1015.0 1015.0 0.0
05/07:00pm 19.5 14.9 8.2 48 5.8 W 22 37 12 20 1014.3 1014.3 0.0
05/06:30pm 18.6 15.7 8.3 51 5.3 WSW 13 19 7 10 1013.8 1013.8 0.0
05/06:00pm 19.4 16.5 8.1 48 5.8 WSW 13 17 7 9 1013.3 1013.3 0.0
05/05:30pm 20.8 17.1 8.1 44 6.6 WSW 17 22 9 12 1012.5 1012.5 0.0
05/05:00pm 22.3 17.8 6.9 37 7.9 WSW 20 28 11 15 1012.0 1012.0 0.0
05/04:30pm 23.1 18.4 7.6 37 8.1 WSW 22 32 12 17 1011.6 1011.6 0.0
05/04:00pm 23.7 18.5 7.3 35 8.6 WSW 24 33 13 18 1011.4 1011.4 0.0
05/03:30pm 23.8 18.1 6.6 33 8.9 WSW 26 35 14 19 1011.5 1011.5 0.0
05/03:00pm 24.1 18.4 6.8 33 9.0 W 26 39 14 21 1011.5 1011.5 0.0
05/02:30pm 23.9 18.1 6.2 32 9.1 WSW 26 33 14 18 1011.5 1011.5 0.0
05/02:00pm 23.7 17.5 6.0 32 9.0 W 28 37 15 20 1011.6 1011.6 0.0
05/01:30pm 23.9 18.6 6.7 33 8.9 W 24 35 13 19 1011.8 1011.8 0.0
05/01:00pm 23.8 19.3 7.0 34 8.7 W 20 28 11 15 1012.1 1012.1 0.0
05/12:30pm 23.1 17.8 6.8 35 8.4 WNW 24 41 13 22 1012.5 1012.5 0.0
05/12:00pm 22.3 18.7 6.9 37 7.9 WNW 15 24 8 13 1013.1 1013.1 0.0
05/11:30am 22.3 19.1 8.4 41 7.3 NW 15 22 8 12 1013.4 1013.4 0.0
05/11:00am 21.4 17.5 7.3 40 7.3 NNW 17 22 9 12 1013.6 1013.6 0.0
05/10:30am 21.2 16.9 7.1 40 7.2 NW 19 24 10 13 1013.8 1013.8 0.0
05/10:00am 20.9 17.7 8.5 45 6.5 NW 15 20 8 11 1014.3 1014.3 0.0
05/09:30am 20.6 17.5 8.9 47 6.2 W 15 22 8 12 1014.5 1014.5 0.0
05/09:00am 18.9 16.0 9.7 55 4.9 NNW 15 20 8 11 1014.5 1014.5 0.2
05/08:30am 18.0 14.8 9.9 59 4.3 NNW 17 22 9 12 1014.4 1014.4 0.2
05/08:00am 16.5 13.6 9.7 64 3.6 NNW 15 17 8 9 1014.7 1014.7 0.2
05/07:30am 15.6 13.5 8.4 62 3.6 NNE 9 13 5 7 1014.6 1014.6 0.2
05/07:00am 14.5 12.5 8.7 68 2.9 N 9 13 5 7 1014.5 1014.5 0.2
05/06:30am 13.4 10.8 7.8 69 2.8 NW 11 15 6 8 1014.0 1014.0 0.2
05/06:00am 13.4 10.3 7.4 67 2.9 NW 13 19 7 10 1013.4 1013.4 0.2
05/05:30am 13.4 9.6 7.6 68 2.8 NNW 17 20 9 11 1012.8 1012.8 0.2
05/05:00am 13.9 10.4 7.4 65 3.2 NNW 15 19 8 10 1012.4 1012.4 0.2
05/04:30am 13.7 10.7 7.7 67 3.0 NNW 13 17 7 9 1011.9 1011.9 0.2
05/04:00am 14.0 11.0 7.8 66 3.1 N 13 15 7 8 1011.6 1011.6 0.2
05/03:30am 14.4 11.4 7.7 64 3.3 N 13 17 7 9 1011.5 1011.5 0.2
05/03:00am 14.6 11.3 7.9 64 3.3 N 15 17 8 9 1011.3 1011.3 0.2
05/03:30am 13.7 10.7 7.9 68 2.9 NNE 13 15 7 8 1011.1 1011.1 0.2
05/03:00am 14.6 12.0 7.6 63 3.5 N 11 15 6 8 1011.1 1011.1 0.2
05/02:30am 14.7 12.3 7.0 60 3.8 N 9 11 5 6 1011.2 1011.2 0.2
05/02:00am 15.7 12.8 6.7 55 4.4 WNW 11 17 6 9 1011.1 1011.1 0.2
05/01:30am 14.7 11.9 6.8 59 3.8 WNW 11 15 6 8 1010.9 1010.9 0.2
05/01:00am 15.8 12.2 6.8 55 4.4 NW 15 19 8 10 1010.7 1010.7 0.2
05/12:30am 15.6 12.5 7.4 58 4.1 NW 13 17 7 9 1010.6 1010.6 0.2
05/12:00am 17.0 13.2 7.4 53 4.8 NW 17 20 9 11 1010.4 1010.4 0.2
 
Date/Time
EST
Temp
°C
App
Temp
°C
Dew
Point
°C
Rel
Hum
%
Delta-T
°C
Wind Press
QNH
hPa
Press
MSL
hPa
Rain since
9am
mm
Dir  Spd
km/h
Gust
km/h
Spd
kts
Gust
kts
04/11:30pm 16.2 13.1 7.2 55 4.5 NW 13 22 7 12 1010.3 1010.3 0.2
04/11:00pm 17.2 14.2 7.5 53 4.9 W 13 17 7 9 1010.0 1010.0 0.2
04/10:30pm 18.2 13.5 7.9 51 5.3 WNW 22 32 12 17 1009.9 1009.9 0.2
04/10:00pm 18.5 14.2 7.9 50 5.4 W 20 39 11 21 1009.5 1009.5 0.2
04/09:30pm 18.0 14.9 7.1 49 5.5 WNW 13 26 7 14 1009.0 1009.0 0.2
04/09:00pm 18.4 15.4 7.5 49 5.5 WNW 13 19 7 10 1008.5 1008.4 0.2
04/08:30pm 18.9 13.7 7.4 47 5.8 WNW 24 35 13 19 1007.8 1007.7 0.2
04/08:00pm 19.1 14.7 7.5 47 5.9 WNW 20 28 11 15 1007.5 1007.4 0.2
04/07:30pm 18.4 14.9 7.2 48 5.6 WNW 15 24 8 13 1006.9 1006.8 0.2
04/07:00pm 20.2 13.8 6.9 42 6.8 WNW 30 44 16 24 1006.3 1006.2 0.2
04/06:30pm 21.1 15.8 6.6 39 7.4 W 24 35 13 19 1005.4 1005.3 0.2
04/06:00pm 21.8 16.7 7.6 40 7.4 W 24 39 13 21 1004.8 1004.7 0.2
04/05:30pm 22.5 15.8 7.5 38 7.8 WNW 32 43 17 23 1004.2 1004.1 0.2
04/05:00pm 23.1 16.2 7.2 36 8.3 W 33 44 18 24 1003.7 1003.6 0.2
04/04:30pm 23.5 16.6 7.2 35 8.5 WNW 33 54 18 29 1003.2 1003.1 0.2
04/04:04pm 23.8 16.8 7.0 34 8.7 W 33 59 18 32 1002.6 1002.5 0.2
04/04:00pm 24.0 18.0 8.8 38 8.2 W 30 41 16 22 1002.8 1002.7 0.2
04/03:45pm 24.0 18.1 7.6 35 8.6 W 28 50 15 27 1002.5 1002.4 0.2
04/03:30pm 24.6 19.4 9.0 37 8.4 W 26 35 14 19 1002.4 1002.3 0.2
04/03:01pm 24.1 16.8 7.3 34 8.8 W 35 56 19 30 1002.2 1002.1 0.2
04/03:00pm 24.2 17.6 8.6 37 8.4 W 33 48 18 26 1002.2 1002.1 0.2
04/02:34pm 23.8 16.5 7.0 34 8.7 W 35 57 19 31 1001.8 1001.7 0.2
04/02:30pm 23.9 17.1 7.9 36 8.5 W 33 46 18 25 1001.8 1001.7 0.2
04/02:11pm 23.7 16.5 7.8 36 8.4 W 35 54 19 29 1001.6 1001.5 0.2
04/02:00pm 24.0 16.5 8.0 36 8.5 W 37 54 20 29 1001.6 1001.5 0.2
04/01:58pm 23.9 16.4 7.9 36 8.5 WSW 37 54 20 29 1001.5 1001.4 0.2
04/01:31pm 24.5 18.0 6.7 32 9.2 WNW 30 61 16 33 1001.1 1001.0 0.2
04/01:30pm 24.5 18.4 6.7 32 9.2 WNW 28 39 15 21 1001.1 1001.0 0.2
04/01:00pm 25.6 19.1 9.0 35 9.1 WNW 33 54 18 29 1000.5 1000.4 0.2
04/12:30pm 25.3 17.8 9.6 37 8.6 WNW 39 57 21 31 1000.2 1000.1 0.2
04/12:15pm 25.0 19.1 10.5 40 8.1 WNW 32 50 17 27 1000.2 1000.1 0.2
04/12:00pm 25.7 20.6 11.8 42 8.0 WNW 30 43 16 23 1000.0 999.9 0.2
04/11:47am 25.1 19.9 11.6 42 7.7 WNW 30 56 16 30 1000.0 999.9 0.2
04/11:45am 25.2 20.6 12.4 45 7.4 W 28 43 15 23 1000.1 1000.0 0.2
04/11:30am 26.0 24.4 15.1 51 6.6 W 17 39 9 21 999.9 999.8 0.2
04/11:00am 24.6 23.9 16.3 60 5.1 NW 15 22 8 12 1000.1 1000.0 0.0
04/10:30am 23.6 24.0 17.3 67 3.9 NNW 11 20 6 11 999.9 999.8 0.0
04/10:00am 21.5 19.8 16.2 72 3.2 NW 20 28 11 15 1000.3 1000.2 0.0
04/09:30am 21.8 21.7 15.9 69 3.5 W 11 37 6 20 1000.2 1000.1 0.0
04/09:00am 21.2 23.1 18.9 87 1.5 NW 7 9 4 5 999.6 999.5 8.0
04/08:30am 20.5 21.8 18.4 88 1.3 NW 9 11 5 6 998.6 998.5 8.0
04/08:00am 19.7 21.0 19.4 98 0.2 NNW 11 17 6 9 998.6 998.5 8.0
04/07:30am 19.7 20.0 19.5 99 0.1 NNE 17 26 9 14 997.1 997.0 8.0
04/07:00am 19.7 19.4 19.5 99 0.1 NNE 20 28 11 15 997.3 997.2 7.6
04/06:30am 20.0 18.9 19.5 97 0.3 NNE 24 32 13 17 997.6 997.5 5.2
04/06:00am 20.3 18.7 19.1 93 0.8 NNE 26 37 14 20 996.9 996.8 4.2
04/05:30am 20.4 20.8 18.9 91 0.9 NE 15 20 8 11 996.9 996.8 3.8
04/05:00am 20.2 21.2 18.7 91 0.9 NNE 11 15 6 8 997.2 997.1 3.8
04/04:30am 20.0 20.3 18.8 93 0.8 NNE 15 19 8 10 997.3 997.2 3.8
04/04:00am 19.7 19.7 18.9 95 0.5 NE 17 20 9 11 997.4 997.3 3.8
04/03:30am 19.7 20.1 18.9 95 0.5 NE 15 19 8 10 998.2 998.1 3.8
04/03:00am 19.6 21.1 18.8 95 0.5 NNE 9 13 5 7 999.1 999.0 3.8
04/02:30am 20.0 19.9 18.8 93 0.8 NNE 17 20 9 11 999.4 999.3 3.8
04/02:00am 20.1 20.1 18.9 93 0.8 NNE 17 22 9 12 1000.0 999.9 3.8
04/01:30am 20.1 21.1 19.4 96 0.4 NNE 13 19 7 10 1000.5 1000.4 3.8
04/01:00am 19.6 21.3 19.4 99 0.1 N 9 17 5 9 1000.9 1000.8 3.8
04/12:30am 19.6 21.7 19.4 99 0.1 NNE 7 13 4 7 1001.5 1001.4 3.8

Latest Capital City Observations: Canberra | Sydney | Melbourne | Brisbane | Adelaide | Perth | Hobart | Darwin

Other formats

Comma delimited format used in spreadsheet applications
http://www.bom.gov.au/fwo/IDN60901/IDN60901.95753.axf

JavaScript Object Notation format (JSON) in row-major order
http://www.bom.gov.au/fwo/IDN60901/IDN60901.95753.json

Data quality

Most of these data are generated automatically and are frequently updated. Quality checks on data are not normally performed. It is possible for incorrect values to appear. Refer to information at About Latest Weather Observations and please check the disclaimer before using these data.